Terminal Aerodrome Forecast
Issued by NWS

Home | Current Version | Previous Version | Text Only | Print | Product List | Glossary On
Versions: 1 2 3 4 5 6 7 8 9 10 11 12 13 14 15 16 17
214
FTUS41 KBGM 292330
TAFRME
TAF
KRME 292330Z 3000/3024 VRB04KT P6SM SCT050 BKN100
     FM300400 VRB05KT P6SM -SHRA BKN030 OVC080
      TEMPO 3004/3008 5SM -SHRA BKN025 OVC060
     FM300900 13005KT P6SM BKN050
     FM301500 25011KT P6SM SCT030 BKN050=

USA.gov is the U.S. government's official web portal to all federal, state and local government web resources and services.